Time;durP1;ratioP1;P1;durP2;ratioP2;P2;SDS_P1;SDS_P2;PMS_P1;PMS_P2;Temp;Humidity;BMP_temperature;BMP_pressure;BME280_temperature;BME280_humidity;BME280_pressure;Samples;Min_cycle;Max_cycle;Signal;HPM_P1;HPM_P2
2022/05/07 00:01:59;;;;;;;73.38;44.58;;;11.50;99.90;;;;;;5056324;28;20408;-77
2022/05/07 00:04:25;;;;;;;80.60;46.60;;;11.40;99.90;;;;;;5056394;28;20049;-77
2022/05/07 00:06:51;;;;;;;84.32;48.50;;;11.40;99.90;;;;;;5056194;28;20049;-77
2022/05/07 00:09:18;;;;;;;87.63;48.38;;;11.40;99.90;;;;;;5056309;28;20049;-77
2022/05/07 00:11:47;;;;;;;85.95;47.47;;;11.40;99.90;;;;;;5056457;28;20041;-77
2022/05/07 00:14:13;;;;;;;78.97;48.10;;;11.40;99.90;;;;;;5055966;28;20510;-77
2022/05/07 00:19:22;;;;;;;75.93;45.75;;;11.30;99.90;;;;;;5055063;28;20049;-77
2022/05/07 00:21:48;;;;;;;73.97;44.80;;;11.30;99.90;;;;;;5056061;28;20503;-77
2022/05/07 00:24:14;;;;;;;70.97;44.20;;;11.30;99.90;;;;;;5056047;28;20048;-77
2022/05/07 00:26:39;;;;;;;85.35;48.50;;;11.30;99.90;;;;;;5055838;28;20060;-77
2022/05/07 00:29:05;;;;;;;81.20;47.70;;;11.30;99.90;;;;;;5054555;28;20083;-76
2022/05/07 00:31:31;;;;;;;86.13;48.28;;;11.40;99.90;;;;;;5055883;28;20132;-77
2022/05/07 00:33:56;;;;;;;100.93;53.83;;;11.40;99.90;;;;;;5055791;28;20040;-76
2022/05/07 00:36:22;;;;;;;90.88;51.75;;;11.40;99.90;;;;;;5055794;28;20045;-76
2022/05/07 00:38:47;;;;;;;97.63;54.40;;;11.40;99.90;;;;;;5055741;28;20070;-76
2022/05/07 00:41:13;;;;;;;99.15;56.65;;;11.40;99.90;;;;;;5055524;28;20045;-76
2022/05/07 00:43:40;;;;;;;99.30;59.28;;;11.40;99.90;;;;;;5055546;28;20048;-77
2022/05/07 00:46:06;;;;;;;106.93;59.72;;;11.40;99.90;;;;;;5054239;28;20043;-77
2022/05/07 00:48:33;;;;;;;106.72;62.17;;;11.50;99.90;;;;;;5054456;28;20044;-77
2022/05/07 00:53:45;;;;;;;95.95;55.30;;;11.50;99.90;;;;;;5055513;28;20049;-77
2022/05/07 00:56:11;;;;;;;108.70;60.75;;;11.40;99.90;;;;;;5055432;28;20053;-77
2022/05/07 00:58:38;;;;;;;106.03;56.47;;;11.40;99.90;;;;;;5055374;28;20492;-77
2022/05/07 01:01:04;;;;;;;108.20;60.33;;;11.50;99.90;;;;;;5055298;28;20088;-76
2022/05/07 01:03:30;;;;;;;105.00;59.17;;;11.40;99.90;;;;;;5054946;28;20088;-77
2022/05/07 01:05:56;;;;;;;103.32;59.05;;;11.40;99.90;;;;;;5055312;28;20048;-76
2022/05/07 01:08:22;;;;;;;108.63;61.65;;;11.40;99.90;;;;;;5054961;28;20041;-77
2022/05/07 01:10:48;;;;;;;117.40;65.22;;;11.50;99.90;;;;;;5055180;28;20044;-77
2022/05/07 01:13:14;;;;;;;108.43;61.42;;;11.50;99.90;;;;;;5055016;28;20102;-76
2022/05/07 01:15:47;;;;;;;112.45;62.53;;;11.50;99.90;;;;;;5087333;28;20480;-76
2022/05/07 01:18:15;;;;;;;120.32;66.10;;;11.50;99.90;;;;;;5054987;28;20086;-77
2022/05/07 01:20:41;;;;;;;122.20;64.90;;;11.50;99.90;;;;;;5054963;28;20120;-77
2022/05/07 01:23:08;;;;;;;129.10;66.88;;;11.50;99.90;;;;;;5053816;28;20052;-77
2022/05/07 01:25:33;;;;;;;120.57;65.43;;;11.40;99.90;;;;;;5054849;28;20041;-77
2022/05/07 01:27:59;;;;;;;117.45;65.18;;;11.40;99.90;;;;;;5054578;28;20123;-77
2022/05/07 01:30:25;;;;;;;119.60;66.13;;;11.50;99.90;;;;;;5054767;28;20064;-77
2022/05/07 01:32:51;;;;;;;128.98;67.40;;;11.50;99.90;;;;;;5054678;28;20044;-77
2022/05/07 01:35:17;;;;;;;125.10;65.35;;;11.50;99.90;;;;;;5054735;28;20041;-77
2022/05/07 01:37:43;;;;;;;129.48;68.63;;;11.60;99.90;;;;;;5054646;28;20384;-77
2022/05/07 01:40:09;;;;;;;123.65;67.97;;;11.60;99.90;;;;;;5054584;28;20063;-77
2022/05/07 01:42:34;;;;;;;127.88;67.15;;;11.70;99.90;;;;;;5054615;28;20053;-77
2022/05/07 01:45:01;;;;;;;140.00;70.47;;;11.70;99.90;;;;;;5053541;28;20037;-77
2022/05/07 01:50:11;;;;;;;121.30;64.78;;;11.70;99.90;;;;;;5054390;28;20106;-77
2022/05/07 01:52:36;;;;;;;117.70;65.70;;;11.80;99.90;;;;;;5054349;28;20042;-77
2022/05/07 01:55:03;;;;;;;118.10;65.10;;;11.80;99.90;;;;;;5054228;28;20037;-77
2022/05/07 01:57:29;;;;;;;124.05;66.22;;;11.80;99.90;;;;;;5054136;28;20080;-77
2022/05/07 01:59:54;;;;;;;126.40;66.18;;;11.80;99.90;;;;;;5054212;28;20526;-77
2022/05/07 02:02:20;;;;;;;124.03;67.30;;;11.80;99.90;;;;;;5054122;28;20059;-77
2022/05/07 02:04:45;;;;;;;117.40;64.65;;;11.80;99.90;;;;;;5054032;28;20049;-77
2022/05/07 02:07:11;;;;;;;123.47;64.85;;;11.80;99.90;;;;;;5052843;28;20089;-77
2022/05/07 02:09:37;;;;;;;123.93;64.45;;;11.80;99.90;;;;;;5054060;28;20137;-77
2022/05/07 02:12:03;;;;;;;117.65;63.10;;;11.90;99.90;;;;;;5086106;28;20037;-77
2022/05/07 02:14:29;;;;;;;119.70;61.42;;;11.90;99.90;;;;;;5054019;28;20056;-77
2022/05/07 02:16:55;;;;;;;112.85;59.88;;;11.90;99.90;;;;;;5054095;28;20045;-77
2022/05/07 02:19:21;;;;;;;110.20;57.85;;;11.90;99.90;;;;;;5053928;28;20047;-77
2022/05/07 02:21:46;;;;;;;105.90;57.47;;;11.90;99.90;;;;;;5053948;28;20454;-77
2022/05/07 02:24:12;;;;;;;101.03;54.17;;;12.00;99.90;;;;;;5053809;28;20041;-77
2022/05/07 02:26:38;;;;;;;102.63;55.33;;;11.90;99.90;;;;;;5086267;28;20037;-78
2022/05/07 02:29:04;;;;;;;111.50;56.50;;;12.00;99.90;;;;;;5053792;28;20553;-79
2022/05/07 02:31:30;;;;;;;116.47;58.75;;;12.00;99.90;;;;;;5053592;28;20041;-75
2022/05/07 02:33:55;;;;;;;111.82;60.33;;;12.00;99.90;;;;;;5053745;28;20051;-75
2022/05/07 02:36:21;;;;;;;118.93;61.80;;;12.10;99.90;;;;;;5053580;28;20048;-75
2022/05/07 02:38:47;;;;;;;112.55;58.72;;;12.10;99.90;;;;;;5053565;28;20049;-76
2022/05/07 02:43:57;;;;;;;104.63;55.55;;;12.10;99.90;;;;;;5053652;28;20079;-76
2022/05/07 02:46:22;;;;;;;102.53;56.17;;;12.10;99.90;;;;;;5053535;28;20073;-76
2022/05/07 02:48:48;;;;;;;107.15;57.83;;;12.20;99.90;;;;;;5053501;28;20072;-76
2022/05/07 02:51:14;;;;;;;97.32;53.50;;;12.20;99.90;;;;;;5053512;28;20041;-75
2022/05/07 02:53:40;;;;;;;105.38;54.00;;;12.20;99.90;;;;;;5053273;28;20041;-76
2022/05/07 02:56:05;;;;;;;104.22;56.55;;;12.20;99.90;;;;;;5053277;28;20044;-75
2022/05/07 02:58:31;;;;;;;105.28;58.00;;;12.20;99.90;;;;;;5053453;28;20057;-75
2022/05/07 03:00:57;;;;;;;100.72;54.00;;;12.20;99.90;;;;;;5053433;28;20174;-75
2022/05/07 03:03:23;;;;;;;104.40;57.30;;;12.20;99.90;;;;;;5051779;28;20053;-75
2022/05/07 03:05:49;;;;;;;107.85;55.88;;;12.20;99.90;;;;;;5053327;28;20470;-75
2022/05/07 03:08:14;;;;;;;104.15;56.35;;;12.20;99.90;;;;;;5053459;28;20145;-75
2022/05/07 03:10:40;;;;;;;101.82;55.00;;;12.20;99.90;;;;;;5057384;28;20546;-75
2022/05/07 03:13:06;;;;;;;111.90;57.95;;;12.20;99.90;;;;;;5057421;28;20384;-76
2022/05/07 03:15:32;;;;;;;101.63;54.60;;;12.20;99.90;;;;;;5057337;28;20409;-76
2022/05/07 03:17:58;;;;;;;85.53;47.50;;;12.30;99.90;;;;;;5055925;28;20369;-76
2022/05/07 03:20:23;;;;;;;94.85;54.95;;;12.20;99.90;;;;;;5057128;28;20043;-76
2022/05/07 03:22:49;;;;;;;92.60;51.22;;;12.20;99.90;;;;;;5056020;28;20400;-76
2022/05/07 03:25:15;;;;;;;96.40;54.53;;;12.20;99.90;;;;;;5056092;28;20103;-75
2022/05/07 03:27:40;;;;;;;102.53;57.47;;;12.20;99.90;;;;;;5056990;28;20466;-76
2022/05/07 03:30:07;;;;;;;105.35;57.13;;;12.20;99.90;;;;;;5057031;28;20037;-75
2022/05/07 03:32:34;;;;;;;109.93;56.83;;;12.20;99.90;;;;;;5057020;28;20064;-76
2022/05/07 03:34:59;;;;;;;96.95;54.25;;;12.20;99.90;;;;;;5056957;28;20094;-75
2022/05/07 03:37:26;;;;;;;107.07;56.40;;;12.20;99.90;;;;;;5057305;28;20049;-76
2022/05/07 03:39:52;;;;;;;97.38;55.33;;;12.10;99.90;;;;;;5056848;28;20041;-75
2022/05/07 03:42:19;;;;;;;102.43;57.72;;;12.10;99.90;;;;;;5056815;28;20098;-75
2022/05/07 03:44:46;;;;;;;97.40;52.20;;;12.10;99.90;;;;;;5056756;28;20064;-76
2022/05/07 03:47:11;;;;;;;105.47;55.53;;;12.00;99.90;;;;;;5056474;28;20182;-75
2022/05/07 03:49:37;;;;;;;108.68;58.42;;;12.10;99.90;;;;;;5056441;28;20116;-75
2022/05/07 03:54:47;;;;;;;104.88;54.10;;;12.10;99.90;;;;;;5054415;28;20102;-76
2022/05/07 03:57:13;;;;;;;95.93;52.08;;;12.00;99.90;;;;;;5053508;28;20053;-76
2022/05/07 03:59:39;;;;;;;101.68;55.80;;;12.00;99.90;;;;;;5054507;28;20049;-76
2022/05/07 04:02:05;;;;;;;104.88;56.35;;;12.00;99.90;;;;;;5054664;28;20210;-76
2022/05/07 04:04:32;;;;;;;97.93;56.47;;;12.00;99.90;;;;;;5054932;28;20080;-76
2022/05/07 04:06:59;;;;;;;107.40;55.85;;;12.00;99.90;;;;;;5054787;28;20079;-76
2022/05/07 04:09:25;;;;;;;101.80;54.55;;;12.00;99.90;;;;;;5056054;28;20391;-76
2022/05/07 04:11:51;;;;;;;109.82;56.00;;;12.00;99.90;;;;;;5056223;28;20060;-75
2022/05/07 04:14:16;;;;;;;108.22;58.92;;;12.00;99.90;;;;;;5056125;28;20392;-76
2022/05/07 04:16:42;;;;;;;102.32;56.70;;;12.00;99.90;;;;;;5055892;28;20048;-75
2022/05/07 04:19:08;;;;;;;109.32;56.42;;;12.00;99.90;;;;;;5055540;28;20045;-75
2022/05/07 04:21:34;;;;;;;109.93;62.38;;;12.00;99.90;;;;;;5055801;28;20480;-75
2022/05/07 04:24:00;;;;;;;107.95;59.45;;;12.00;99.90;;;;;;5055938;28;20033;-75
2022/05/07 04:26:26;;;;;;;104.70;59.30;;;12.00;99.90;;;;;;5054455;28;20076;-75
2022/05/07 04:28:51;;;;;;;105.45;58.17;;;12.00;99.90;;;;;;5055642;28;20095;-75
2022/05/07 04:31:18;;;;;;;95.35;53.65;;;12.00;99.90;;;;;;5054262;28;20104;-75
2022/05/07 04:33:45;;;;;;;112.25;59.08;;;12.00;99.90;;;;;;5055747;28;20055;-75
2022/05/07 04:36:11;;;;;;;107.50;57.78;;;12.00;99.90;;;;;;5055784;28;20056;-75
2022/05/07 04:38:37;;;;;;;100.50;56.15;;;12.00;99.90;;;;;;5054382;28;20392;-75
2022/05/07 04:41:02;;;;;;;108.68;58.08;;;12.00;99.90;;;;;;5054112;28;20041;-75
2022/05/07 04:43:28;;;;;;;109.68;60.17;;;12.10;99.90;;;;;;5055569;28;20037;-75
2022/05/07 04:45:54;;;;;;;115.50;60.17;;;12.00;99.90;;;;;;5055506;28;20044;-75
2022/05/07 04:48:19;;;;;;;111.30;59.25;;;12.10;99.90;;;;;;5055492;28;20037;-75
2022/05/07 04:50:45;;;;;;;101.63;56.25;;;12.10;99.90;;;;;;5055486;28;20468;-75
2022/05/07 04:53:11;;;;;;;95.32;53.25;;;12.10;99.90;;;;;;5055207;28;20045;-75
2022/05/07 04:55:36;;;;;;;113.00;59.85;;;12.10;99.90;;;;;;5055187;28;20044;-75
2022/05/07 04:58:02;;;;;;;119.28;64.80;;;12.10;99.90;;;;;;5055008;28;20045;-75
2022/05/07 05:00:28;;;;;;;122.75;63.90;;;12.20;99.90;;;;;;5055231;28;20041;-75
2022/05/07 05:02:54;;;;;;;121.65;64.32;;;12.20;99.90;;;;;;5054984;28;20056;-76
2022/05/07 05:05:19;;;;;;;123.00;62.03;;;12.20;99.90;;;;;;5055152;28;20044;-75
2022/05/07 05:07:45;;;;;;;117.28;64.78;;;12.20;99.90;;;;;;5055094;28;20392;-75
2022/05/07 05:10:11;;;;;;;115.45;62.15;;;12.30;99.90;;;;;;5054785;28;20047;-76
2022/05/07 05:12:37;;;;;;;115.70;61.15;;;12.30;99.90;;;;;;5054791;28;20052;-75
2022/05/07 05:15:04;;;;;;;116.53;60.90;;;12.30;99.90;;;;;;5054637;28;20041;-75
2022/05/07 05:17:31;;;;;;;120.82;63.10;;;12.40;99.90;;;;;;5055003;28;20045;-75
2022/05/07 05:19:57;;;;;;;116.78;61.47;;;12.40;99.90;;;;;;5054646;28;20045;-75
2022/05/07 05:22:22;;;;;;;122.75;65.70;;;12.40;99.90;;;;;;5053460;28;20098;-75
2022/05/07 05:24:48;;;;;;;123.72;63.92;;;12.40;99.90;;;;;;5053375;28;20091;-75
2022/05/07 05:27:14;;;;;;;122.32;64.85;;;12.50;99.90;;;;;;5054713;28;20170;-75
2022/05/07 05:29:41;;;;;;;135.43;67.00;;;12.50;99.90;;;;;;5087236;28;20048;-75
2022/05/07 05:32:07;;;;;;;132.00;69.82;;;12.70;99.90;;;;;;5053988;28;20124;-75
2022/05/07 05:34:33;;;;;;;129.02;69.65;;;12.70;99.90;;;;;;5053421;28;20044;-75
2022/05/07 05:36:58;;;;;;;127.85;68.97;;;12.80;99.90;;;;;;5054551;28;20052;-76
2022/05/07 05:39:24;;;;;;;131.93;66.40;;;12.90;99.90;;;;;;5054502;28;20128;-76
2022/05/07 05:41:50;;;;;;;127.00;68.93;;;12.90;99.90;;;;;;5054578;28;20045;-75
2022/05/07 05:44:15;;;;;;;134.65;70.15;;;13.00;99.90;;;;;;5086388;28;20095;-76
2022/05/07 05:46:41;;;;;;;138.98;69.03;;;13.10;99.90;;;;;;5054286;28;20048;-76
2022/05/07 05:49:07;;;;;;;144.75;71.90;;;13.10;99.90;;;;;;5054346;28;20472;-76
2022/05/07 05:51:32;;;;;;;139.18;70.97;;;13.20;99.90;;;;;;5054350;28;20045;-76
2022/05/07 05:53:58;;;;;;;129.88;69.05;;;13.30;99.90;;;;;;5054329;28;20040;-76
2022/05/07 05:56:23;;;;;;;129.23;68.97;;;13.30;99.90;;;;;;5086514;28;20048;-76
2022/05/07 05:58:49;;;;;;;135.65;70.47;;;13.30;99.90;;;;;;5052890;28;20550;-76
2022/05/07 06:01:15;;;;;;;137.15;69.65;;;13.40;99.90;;;;;;5054141;28;20171;-76
2022/05/07 06:03:41;;;;;;;140.20;70.10;;;13.40;99.90;;;;;;5053627;28;20106;-76
2022/05/07 06:06:07;;;;;;;133.18;66.45;;;13.30;99.90;;;;;;5086426;28;20098;-76
2022/05/07 06:08:32;;;;;;;139.57;71.30;;;13.40;99.90;;;;;;5052364;28;20049;-76
2022/05/07 06:10:58;;;;;;;135.13;69.15;;;13.50;99.90;;;;;;5086002;28;20094;-76
2022/05/07 06:13:24;;;;;;;138.27;66.13;;;13.50;99.90;;;;;;5053703;28;20057;-76
2022/05/07 06:15:51;;;;;;;152.05;71.60;;;13.50;99.90;;;;;;5053868;28;20124;-76
2022/05/07 06:18:22;;;;;;;151.70;68.82;;;13.50;99.90;;;;;;5052391;28;20538;-76
2022/05/07 06:20:49;;;;;;;163.65;70.88;;;13.60;99.90;;;;;;5053597;28;20476;-76
2022/05/07 06:23:15;;;;;;;149.68;67.50;;;13.70;99.90;;;;;;5053851;28;20120;-77
2022/05/07 06:28:25;;;;;;;146.98;70.60;;;13.80;99.90;;;;;;5052152;28;20107;-76
2022/05/07 06:30:52;;;;;;;146.38;71.63;;;13.90;99.90;;;;;;5053739;28;20037;-75
2022/05/07 06:33:18;;;;;;;142.60;68.15;;;13.90;99.90;;;;;;5053510;28;20055;-76
2022/05/07 06:35:44;;;;;;;148.13;69.65;;;14.00;99.90;;;;;;5052202;28;20049;-75
2022/05/07 06:38:11;;;;;;;161.20;76.53;;;13.90;99.90;;;;;;5053665;28;20047;-75
2022/05/07 06:40:38;;;;;;;164.38;80.30;;;14.00;99.90;;;;;;5053538;28;20037;-74
2022/05/07 06:43:04;;;;;;;165.80;82.60;;;13.90;99.90;;;;;;5055774;28;20053;-75
2022/05/07 06:45:31;;;;;;;175.55;79.65;;;14.00;99.90;;;;;;5061712;28;20049;-75
2022/05/07 06:47:56;;;;;;;160.63;77.82;;;13.90;99.90;;;;;;5053086;28;20052;-75
2022/05/07 06:50:22;;;;;;;179.32;79.35;;;13.90;99.90;;;;;;5053299;28;20045;-74
2022/05/07 06:52:48;;;;;;;182.73;77.80;;;13.90;99.90;;;;;;5053012;28;20132;-74
2022/05/07 06:55:14;;;;;;;178.07;78.70;;;13.80;99.90;;;;;;5051679;28;20519;-75
2022/05/07 06:57:41;;;;;;;190.70;79.00;;;13.80;99.90;;;;;;5053211;28;20116;-75
2022/05/07 07:00:08;;;;;;;171.68;79.18;;;13.80;99.90;;;;;;5052996;28;20535;-76
2022/05/07 07:02:33;;;;;;;185.77;83.13;;;13.80;99.90;;;;;;5053139;28;20049;-75
2022/05/07 07:05:00;;;;;;;186.65;83.85;;;13.80;99.90;;;;;;5051885;28;20431;-74
2022/05/07 07:07:26;;;;;;;188.50;84.18;;;13.80;99.90;;;;;;5053171;28;20087;-74
2022/05/07 07:09:52;;;;;;;186.82;82.93;;;13.70;99.90;;;;;;5051523;28;20598;-74
2022/05/07 07:12:20;;;;;;;182.43;85.70;;;13.70;99.90;;;;;;5052909;28;20504;-73
2022/05/07 07:14:47;;;;;;;190.95;85.78;;;13.70;99.90;;;;;;5051835;28;20056;-74
2022/05/07 07:17:13;;;;;;;192.07;85.03;;;13.70;99.90;;;;;;5051604;28;20049;-74
2022/05/07 07:19:41;;;;;;;202.20;85.93;;;13.70;99.90;;;;;;5052775;28;20053;-74
2022/05/07 07:22:08;;;;;;;191.48;81.00;;;13.60;99.90;;;;;;5051718;28;20056;-74
2022/05/07 07:24:33;;;;;;;186.38;82.68;;;13.60;99.90;;;;;;5051312;28;20056;-74
2022/05/07 07:26:59;;;;;;;193.98;83.75;;;13.70;99.90;;;;;;5062694;28;20040;-74
2022/05/07 07:29:25;;;;;;;197.13;83.35;;;13.70;99.90;;;;;;5051403;28;20136;-74
2022/05/07 07:31:51;;;;;;;203.40;85.38;;;13.80;99.90;;;;;;5052939;28;20045;-74
2022/05/07 07:34:17;;;;;;;197.65;85.43;;;13.80;99.90;;;;;;5053024;28;20041;-80
2022/05/07 07:36:44;;;;;;;200.70;88.38;;;13.90;99.90;;;;;;5052506;28;20377;-82
2022/05/07 07:39:11;;;;;;;196.15;84.53;;;13.90;99.90;;;;;;5052671;28;20052;-74
2022/05/07 07:41:36;;;;;;;190.32;85.22;;;14.00;99.90;;;;;;5052820;28;20045;-74
2022/05/07 07:44:02;;;;;;;191.60;78.82;;;14.00;99.90;;;;;;5052813;28;20049;-75
2022/05/07 07:49:12;;;;;;;194.43;81.50;;;14.10;99.90;;;;;;5052792;28;20057;-75
2022/05/07 07:51:38;;;;;;;188.80;72.80;;;14.10;99.90;;;;;;5052671;28;20086;-75
2022/05/07 07:54:04;;;;;;;182.00;70.63;;;14.10;99.90;;;;;;5052419;28;20045;-74
2022/05/07 07:56:30;;;;;;;184.68;73.40;;;14.10;99.90;;;;;;5060931;28;20091;-74
2022/05/07 07:58:56;;;;;;;177.65;70.00;;;14.20;99.90;;;;;;5060985;28;20081;-75
2022/05/07 08:01:22;;;;;;;186.13;68.95;;;14.30;99.90;;;;;;5055954;28;20541;-75
2022/05/07 08:03:47;;;;;;;170.70;69.75;;;14.40;99.90;;;;;;5055707;28;20060;-75
2022/05/07 08:06:13;;;;;;;165.43;64.93;;;14.50;99.90;;;;;;5059659;28;20127;-75
2022/05/07 08:11:42;;;;;;;162.20;65.43;;;14.70;99.90;;;;;;5056060;28;20049;-74
2022/05/07 08:14:13;;;;;;;164.88;68.03;;;14.60;99.90;;;;;;5054511;28;20472;-75
2022/05/07 08:16:41;;;;;;;172.93;71.82;;;14.80;99.90;;;;;;5055991;28;20044;-75
2022/05/07 08:19:07;;;;;;;158.38;66.55;;;14.70;99.90;;;;;;5055877;28;20131;-75
2022/05/07 08:21:32;;;;;;;148.98;64.97;;;14.80;99.90;;;;;;5055513;28;20132;-75
2022/05/07 08:23:58;;;;;;;147.50;61.67;;;14.90;99.90;;;;;;5054790;28;20084;-74
2022/05/07 08:26:24;;;;;;;155.25;61.97;;;14.90;99.90;;;;;;5059944;28;20124;-74
2022/05/07 08:28:53;;;;;;;145.00;61.38;;;14.90;99.90;;;;;;5060968;28;20055;-74
2022/05/07 08:31:23;;;;;;;150.90;64.95;;;15.10;99.90;;;;;;5055700;28;20065;-75
2022/05/07 08:33:50;;;;;;;138.63;57.30;;;15.10;99.90;;;;;;5055305;28;20411;-74
2022/05/07 08:36:16;;;;;;;137.60;60.72;;;15.00;99.90;;;;;;5058673;28;20381;-74
2022/05/07 08:38:42;;;;;;;142.32;62.28;;;15.10;99.90;;;;;;5063154;28;20041;-75
2022/05/07 08:41:10;;;;;;;147.52;62.05;;;15.10;99.90;;;;;;5055528;28;20044;-75
2022/05/07 08:43:37;;;;;;;158.48;65.03;;;15.10;99.90;;;;;;5055122;28;20045;-75
2022/05/07 08:46:14;;;;;;;159.43;65.65;;;15.30;99.90;;;;;;5054186;28;20123;-74
2022/05/07 08:48:41;;;;;;;151.77;62.05;;;15.40;99.90;;;;;;5055253;28;20132;-75
2022/05/07 08:51:07;;;;;;;153.55;64.75;;;15.50;99.90;;;;;;5054109;28;20115;-74
2022/05/07 08:53:34;;;;;;;146.07;65.07;;;15.70;99.90;;;;;;5054989;28;20457;-77
2022/05/07 08:56:00;;;;;;;152.13;62.88;;;15.90;99.90;;;;;;5053920;28;20052;-77
2022/05/07 08:58:25;;;;;;;143.38;61.08;;;16.10;99.90;;;;;;5053132;28;20045;-76
2022/05/07 09:00:51;;;;;;;137.88;58.28;;;16.20;99.90;;;;;;5053976;28;20123;-76
2022/05/07 09:03:17;;;;;;;102.50;47.55;;;16.20;99.90;;;;;;5053598;28;20389;-76
2022/05/07 09:05:43;;;;;;;87.65;40.45;;;16.20;99.90;;;;;;5054201;28;20060;-75
2022/05/07 09:08:12;;;;;;;80.72;37.33;;;16.30;99.90;;;;;;5054446;28;20273;-75
2022/05/07 09:10:40;;;;;;;68.65;32.25;;;16.30;99.90;;;;;;5054703;28;20224;-75
2022/05/07 09:13:16;;;;;;;49.95;24.17;;;16.30;99.90;;;;;;5054851;28;20037;-75
2022/05/07 09:15:53;;;;;;;39.65;19.80;;;16.30;99.90;;;;;;5053384;28;20534;-75
2022/05/07 09:18:20;;;;;;;22.30;11.75;;;16.30;99.90;;;;;;5053562;28;20053;-75
2022/05/07 09:21:16;;;;;;;18.50;8.75;;;16.30;99.90;;;;;;5054756;28;20048;-75
2022/05/07 09:24:05;;;;;;;18.25;8.75;;;16.20;99.90;;;;;;5054481;28;20037;-76
2022/05/07 09:26:39;;;;;;;21.48;10.90;;;16.00;99.90;;;;;;5054747;28;20052;-78
2022/05/07 09:29:08;;;;;;;21.70;11.65;;;16.00;99.90;;;;;;5054675;28;20118;-75
2022/05/07 09:31:35;;;;;;;23.20;12.68;;;15.90;99.90;;;;;;5053129;28;20045;-75
2022/05/07 09:36:58;;;;;;;23.52;11.27;;;15.80;99.90;;;;;;5054343;28;20080;-75
2022/05/07 09:39:31;;;;;;;23.20;11.30;;;15.60;99.90;;;;;;5053231;28;20049;-75
2022/05/07 09:41:58;;;;;;;24.98;12.00;;;15.40;99.90;;;;;;5054298;28;20051;-76
2022/05/07 09:44:27;;;;;;;19.58;9.95;;;15.50;99.90;;;;;;5054022;28;20435;-75
2022/05/07 09:46:54;;;;;;;20.00;10.27;;;15.60;99.90;;;;;;5054249;28;20128;-76
2022/05/07 09:49:21;;;;;;;22.25;10.93;;;15.60;99.90;;;;;;5054259;28;20128;-75
2022/05/07 09:51:48;;;;;;;18.73;9.45;;;15.50;99.90;;;;;;5054228;28;20041;-78
2022/05/07 09:59:45;;;;;;;16.30;8.02;;;15.80;99.90;;;;;;5054069;28;20064;-76
2022/05/07 10:02:46;;;;;;;18.77;9.75;;;15.80;99.90;;;;;;5053797;28;20089;-77
2022/05/07 10:05:17;;;;;;;18.40;8.82;;;15.80;99.90;;;;;;5053928;28;20048;-78
2022/05/07 10:08:08;;;;;;;17.80;8.57;;;16.00;99.90;;;;;;5052475;28;20488;-76
2022/05/07 10:10:38;;;;;;;16.25;8.40;;;16.00;99.90;;;;;;5053651;28;20063;-76
2022/05/07 10:13:07;;;;;;;17.02;8.05;;;16.00;99.90;;;;;;5053694;28;20065;-76
2022/05/07 10:15:32;;;;;;;13.07;7.50;;;16.00;99.90;;;;;;5053774;28;20064;-75
2022/05/07 10:18:01;;;;;;;15.02;7.88;;;15.90;99.90;;;;;;5053544;28;20419;-76
2022/05/07 10:20:37;;;;;;;32.25;16.40;;;16.00;99.90;;;;;;5053670;28;20048;-75
2022/05/07 10:23:02;;;;;;;46.20;24.10;;;16.00;99.90;;;;;;5053722;28;20049;-75
2022/05/07 10:25:28;;;;;;;49.20;24.55;;;16.10;99.90;;;;;;5053236;28;20106;-75
2022/05/07 10:27:54;;;;;;;35.78;18.88;;;16.00;99.90;;;;;;5051957;28;20540;-76
2022/05/07 10:30:22;;;;;;;34.80;18.33;;;16.00;99.90;;;;;;5053270;28;20048;-74
2022/05/07 10:32:55;;;;;;;37.35;20.52;;;16.00;99.90;;;;;;5052000;28;20091;-78
2022/05/07 10:35:44;;;;;;;38.70;20.40;;;16.00;99.90;;;;;;5053170;28;20496;-74
2022/05/07 10:38:14;;;;;;;37.72;19.40;;;16.20;99.90;;;;;;5053660;28;20033;-75
2022/05/07 10:40:52;;;;;;;41.60;21.52;;;16.40;99.90;;;;;;5053330;28;20099;-76
2022/05/07 10:43:29;;;;;;;39.58;20.65;;;16.60;99.90;;;;;;5053184;28;20044;-75
2022/05/07 10:46:10;;;;;;;36.30;18.55;;;17.10;99.90;;;;;;5064734;28;20045;-75
2022/05/07 10:48:59;;;;;;;34.75;18.63;;;17.20;99.90;;;;;;5052921;28;20144;-75
2022/05/07 10:51:36;;;;;;;30.05;17.40;;;17.20;99.90;;;;;;5053015;28;20416;-75
2022/05/07 10:54:22;;;;;;;37.85;17.20;;;17.20;99.90;;;;;;5053166;28;20067;-75
2022/05/07 10:56:56;;;;;;;32.72;16.75;;;17.10;99.90;;;;;;5052904;28;20480;-75
2022/05/07 10:59:24;;;;;;;28.88;16.98;;;17.10;99.90;;;;;;5053358;28;20098;-75
2022/05/07 11:01:50;;;;;;;30.23;16.27;;;17.20;99.90;;;;;;5052775;28;20396;-76
2022/05/07 11:04:22;;;;;;;40.55;20.65;;;17.30;99.90;;;;;;5053102;28;20048;-76
2022/05/07 11:06:49;;;;;;;43.17;22.85;;;17.40;99.90;;;;;;5064717;28;20036;-75
2022/05/07 11:09:15;;;;;;;40.13;22.45;;;17.50;99.90;;;;;;5084460;28;20032;-76
2022/05/07 11:11:46;;;;;;;46.83;24.20;;;17.50;99.90;;;;;;5093388;28;20445;-76
2022/05/07 11:14:20;;;;;;;53.42;26.08;;;17.70;99.90;;;;;;5084223;28;20044;-75
2022/05/07 11:16:46;;;;;;;48.10;25.10;;;17.40;99.90;;;;;;5061982;28;20048;-76
2022/05/07 11:19:22;;;;;;;58.45;26.98;;;17.40;99.90;;;;;;5053018;28;20123;-75
2022/05/07 11:21:52;;;;;;;51.10;26.73;;;17.40;99.90;;;;;;5052802;28;20052;-75
2022/05/07 11:24:20;;;;;;;51.88;27.35;;;17.30;99.90;;;;;;5055594;28;20124;-75
2022/05/07 11:27:00;;;;;;;50.33;25.35;;;17.20;99.90;;;;;;5070207;28;20040;-75
2022/05/07 11:29:26;;;;;;;48.28;23.52;;;17.20;99.90;;;;;;5073137;28;20483;-76
2022/05/07 11:31:57;;;;;;;42.58;21.17;;;17.20;99.90;;;;;;5076708;28;20116;-76
2022/05/07 11:34:33;;;;;;;43.90;21.75;;;17.30;99.90;;;;;;5076719;28;20080;-75
2022/05/07 11:37:13;;;;;;;51.08;24.63;;;17.50;99.90;;;;;;5076864;28;20046;-76
2022/05/07 11:40:05;;;;;;;53.33;23.85;;;17.50;99.90;;;;;;5075161;28;20072;-76
2022/05/07 11:42:33;;;;;;;53.27;23.67;;;17.70;99.90;;;;;;5072281;28;20119;-75
2022/05/07 11:47:54;;;;;;;42.08;20.38;;;17.70;99.90;;;;;;5076536;28;20080;-74
2022/05/07 11:50:28;;;;;;;35.83;18.05;;;17.40;99.90;;;;;;5076527;28;20041;-75
2022/05/07 11:52:54;;;;;;;29.33;13.77;;;17.30;99.90;;;;;;5076536;28;20040;-75
2022/05/07 11:55:25;;;;;;;27.05;14.48;;;17.30;99.90;;;;;;5076458;28;20045;-75
2022/05/07 11:57:51;;;;;;;26.52;14.50;;;17.00;99.90;;;;;;5076394;28;20036;-75
2022/05/07 12:00:18;;;;;;;30.77;15.95;;;16.70;99.90;;;;;;5076233;28;20048;-75
2022/05/07 12:02:54;;;;;;;30.35;15.48;;;16.60;99.90;;;;;;5075251;28;20098;-75
2022/05/07 12:05:20;;;;;;;28.45;14.65;;;16.70;99.90;;;;;;5075995;28;20049;-75
2022/05/07 12:07:48;;;;;;;24.05;12.30;;;17.00;99.90;;;;;;5075866;28;20060;-75
2022/05/07 12:10:15;;;;;;;15.25;7.22;;;16.90;99.90;;;;;;5076076;28;20045;-74
2022/05/07 12:12:41;;;;;;;13.80;7.95;;;17.10;99.90;;;;;;5076065;28;20056;-75
2022/05/07 12:15:07;;;;;;;11.13;6.57;;;16.90;99.90;;;;;;5075870;28;20076;-75
2022/05/07 12:20:17;;;;;;;11.95;6.60;;;17.30;99.90;;;;;;5074400;28;20059;-74
2022/05/07 12:30:57;;;;;;;9.95;5.22;;;17.30;99.90;;;;;;5075813;28;20049;-75
2022/05/07 12:33:22;;;;;;;9.88;5.18;;;17.40;99.90;;;;;;5075612;28;20043;-75
2022/05/07 12:35:49;;;;;;;21.88;10.27;;;17.40;99.90;;;;;;5074135;28;20103;-75
2022/05/07 12:38:15;;;;;;;19.92;9.90;;;17.40;99.90;;;;;;5074464;28;20037;-75
2022/05/07 12:40:41;;;;;;;20.25;8.27;;;17.40;99.90;;;;;;5075368;28;20373;-75
2022/05/07 12:43:07;;;;;;;15.98;7.75;;;17.40;99.90;;;;;;5075172;28;20043;-75
2022/05/07 12:45:34;;;;;;;28.63;11.55;;;17.60;99.90;;;;;;5075445;28;20096;-76
2022/05/07 12:48:00;;;;;;;22.98;11.13;;;17.60;99.90;;;;;;5075503;28;20181;-76
2022/05/07 12:50:26;;;;;;;21.00;10.60;;;17.40;99.90;;;;;;5075143;28;20174;-77
2022/05/07 12:52:52;;;;;;;20.85;10.05;;;17.40;99.90;;;;;;5075408;28;20051;-77
2022/05/07 12:55:17;;;;;;;16.35;7.90;;;17.60;99.90;;;;;;5075035;28;20045;-76
2022/05/07 12:57:43;;;;;;;13.35;7.40;;;17.60;99.90;;;;;;5074787;28;20047;-76
2022/05/07 13:00:09;;;;;;;12.35;5.78;;;17.40;99.90;;;;;;5075295;28;20044;-76
2022/05/07 13:02:35;;;;;;;12.73;5.65;;;17.00;99.90;;;;;;5074805;28;20137;-76
2022/05/07 13:05:00;;;;;;;10.35;5.25;;;17.00;99.90;;;;;;5075152;28;20087;-77
2022/05/07 13:07:26;;;;;;;11.43;5.18;;;17.10;99.90;;;;;;5073702;28;20049;-76
2022/05/07 13:09:51;;;;;;;8.35;4.53;;;17.00;99.90;;;;;;5073846;28;20051;-76